Terminal Aerodrome Forecast
Issued by NWS Sioux Falls, SD

Home | Current Version | Previous Version | Text Only | Print | Product List | Glossary On
Versions: 1 2 3 4 5 6 7 8 9 10 11 12 13 14 15 16
000
FTUS43 KFSD 041739
TAFFSD
TAF
KFSD 041739Z 0418/0518 33018G26KT P6SM SCT025
      TEMPO 0418/0420 BKN025
     FM050000 32008KT P6SM SKC
     FM050300 VRB03KT P6SM SKC
     FM051700 18006KT P6SM SKC=

USA.gov is the U.S. government's official web portal to all federal, state and local government web resources and services.